createdAt,value
2018-04-22T00:00:00.474Z,13.97
2018-04-22T00:01:00.457Z,14
2018-04-22T00:02:00.437Z,14.11
2018-04-22T00:03:00.658Z,13.99
2018-04-22T00:04:00.633Z,14
2018-04-22T00:05:00.431Z,14.04
2018-04-22T00:06:00.597Z,13.99
2018-04-22T00:07:00.567Z,13.93
2018-04-22T00:08:00.544Z,13.99
2018-04-22T00:09:00.530Z,14
2018-04-22T00:10:00.508Z,13.92
2018-04-22T00:11:00.479Z,13.96
2018-04-22T00:12:00.461Z,13.95
2018-04-22T00:13:00.436Z,13.9
2018-04-22T00:14:00.411Z,13.87
2018-04-22T00:15:00.407Z,13.9
2018-04-22T00:16:00.121Z,13.87
2018-04-22T00:17:00.102Z,13.9
2018-04-22T00:18:00.320Z,13.83
2018-04-22T00:19:00.301Z,13.83
2018-04-22T00:20:00.285Z,13.81
2018-04-22T00:21:00.256Z,13.86
2018-04-22T00:22:00.234Z,13.85
2018-04-22T00:23:00.217Z,13.81
2018-04-22T00:23:59.944Z,13.74
2018-04-22T00:25:00.186Z,13.79
2018-04-22T00:26:00.150Z,13.77
2018-04-22T00:27:00.127Z,13.75
2018-04-22T00:27:59.858Z,13.77
2018-04-22T00:29:00.083Z,13.74
2018-04-22T00:30:00.061Z,13.72
2018-04-22T00:31:00.044Z,13.71
2018-04-22T00:31:59.766Z,13.65
2018-04-22T00:32:59.997Z,13.71
2018-04-22T00:33:59.979Z,13.62
2018-04-22T00:34:59.702Z,13.7
2018-04-22T00:35:59.927Z,13.6
2018-04-22T00:36:59.665Z,13.63
2018-04-22T00:37:59.884Z,13.6
2018-04-22T00:38:59.612Z,13.53
2018-04-22T00:39:59.847Z,13.59
2018-04-22T00:40:59.321Z,13.6
2018-04-22T00:41:59.897Z,13.62
2018-04-22T00:42:59.779Z,13.62
2018-04-22T00:43:59.754Z,13.62
2018-04-22T00:44:59.732Z,13.62
2018-04-22T00:45:59.719Z,13.65
2018-04-22T00:46:59.684Z,13.6
2018-04-22T00:47:59.418Z,13.62
2018-04-22T00:48:59.645Z,13.59
2018-04-22T00:49:59.620Z,13.6
2018-04-22T00:50:59.596Z,13.62
2018-04-22T00:51:59.576Z,13.52
2018-04-22T00:52:59.549Z,13.56
2018-04-22T00:53:59.533Z,13.47
2018-04-22T00:54:59.514Z,13.56
2018-04-22T00:55:59.489Z,13.46
2018-04-22T00:56:59.465Z,13.49
2018-04-22T00:57:59.194Z,13.53
2018-04-22T00:58:59.417Z,13.57
2018-04-22T00:59:59.396Z,13.52
2018-04-22T01:00:59.158Z,13.47
2018-04-22T01:01:59.351Z,13.52
2018-04-22T01:02:59.333Z,13.49
2018-04-22T01:03:59.310Z,13.56
2018-04-22T01:04:59.285Z,13.5
2018-04-22T01:05:59.267Z,13.46
2018-04-22T01:06:59.246Z,13.42
2018-04-22T01:07:58.973Z,13.42
2018-04-22T01:08:59.201Z,13.42
2018-04-22T01:09:59.174Z,13.41
2018-04-22T01:10:59.164Z,13.38
2018-04-22T01:11:59.131Z,13.39
2018-04-22T01:12:59.114Z,13.37
2018-04-22T01:13:59.142Z,13.37
2018-04-22T01:14:59.063Z,13.31
2018-04-22T01:15:59.047Z,13.31
2018-04-22T01:16:58.773Z,13.31
2018-04-22T01:17:58.747Z,13.27
2018-04-22T01:18:58.971Z,13.22
2018-04-22T01:19:58.950Z,13.25
2018-04-22T01:20:58.680Z,13.23
2018-04-22T01:21:58.909Z,13.23
2018-04-22T01:22:58.888Z,13.19
2018-04-22T01:23:58.864Z,13.19
2018-04-22T01:24:58.839Z,13.19
2018-04-22T01:25:58.823Z,13.13
2018-04-22T01:26:58.801Z,13.16
2018-04-22T01:27:58.528Z,13.15
2018-04-22T01:28:58.763Z,13.18
2018-04-22T01:29:58.485Z,13.15
2018-04-22T01:30:58.709Z,13.16
2018-04-22T01:31:58.438Z,13.16
2018-04-22T01:32:58.663Z,13.16
2018-04-22T01:33:58.392Z,13.16
2018-04-22T01:34:58.647Z,13.16
2018-04-22T01:35:58.604Z,13.19
2018-04-22T01:36:58.577Z,13.19
2018-04-22T01:37:58.551Z,13.13
2018-04-22T01:38:58.531Z,13.2
2018-04-22T01:39:58.261Z,13.18
2018-04-22T01:40:58.502Z,13.16
2018-04-22T01:41:58.463Z,13.19
2018-04-22T01:42:58.438Z,13.16
2018-04-22T01:43:58.436Z,13.18
2018-04-22T01:44:58.401Z,13.18
2018-04-22T01:45:58.122Z,13.16
2018-04-22T01:46:58.102Z,13.05
2018-04-22T01:47:58.332Z,13.13
2018-04-22T01:48:58.305Z,13.08
2018-04-22T01:49:58.289Z,13.08
2018-04-22T01:50:58.268Z,13.04
2018-04-22T01:51:58.237Z,13.05
2018-04-22T01:52:57.969Z,13
2018-04-22T01:53:57.953Z,13.04
2018-04-22T01:54:57.934Z,13.03
2018-04-22T01:55:58.158Z,13.04
2018-04-22T01:56:57.876Z,13
2018-04-22T01:57:58.109Z,13.04
2018-04-22T01:58:58.087Z,12.94
2018-04-22T01:59:57.809Z,12.97
2018-04-22T02:00:57.790Z,13.03
2018-04-22T02:01:57.767Z,13.04
2018-04-22T02:02:57.994Z,12.94
2018-04-22T02:03:57.969Z,12.9
2018-04-22T02:04:57.954Z,12.9
2018-04-22T02:05:57.925Z,12.93
2018-04-22T02:06:57.903Z,12.8
2018-04-22T02:07:57.880Z,12.9
2018-04-22T02:08:57.608Z,12.95
2018-04-22T02:09:57.833Z,12.94
2018-04-22T02:10:57.815Z,12.93
2018-04-22T02:11:57.898Z,12.9
2018-04-22T02:12:57.768Z,12.87
2018-04-22T02:13:57.744Z,12.9
2018-04-22T02:14:57.717Z,12.91
2018-04-22T02:15:57.840Z,12.86
2018-04-22T02:16:57.432Z,12.79
2018-04-22T02:17:57.657Z,12.86
2018-04-22T02:18:57.629Z,12.91
2018-04-22T02:19:57.609Z,12.86
2018-04-22T02:20:57.589Z,12.83
2018-04-22T02:21:57.573Z,12.9
2018-04-22T02:22:57.291Z,12.86
2018-04-22T02:23:57.517Z,12.86
2018-04-22T02:24:57.542Z,12.9
2018-04-22T02:25:57.477Z,12.87
2018-04-22T02:26:57.452Z,12.87
2018-04-22T02:27:57.437Z,12.86
2018-04-22T02:28:57.409Z,12.9
2018-04-22T02:29:57.133Z,12.85
2018-04-22T02:30:57.110Z,12.79
2018-04-22T02:31:57.093Z,12.91
2018-04-22T02:32:57.314Z,12.86
2018-04-22T02:33:57.291Z,12.83
2018-04-22T02:34:57.030Z,12.83
2018-04-22T02:35:57.250Z,12.97
2018-04-22T02:36:57.226Z,12.91
2018-04-22T02:37:57.202Z,12.86
2018-04-22T02:38:57.184Z,12.85
2018-04-22T02:39:57.168Z,12.86
2018-04-22T02:40:57.148Z,12.8
2018-04-22T02:41:57.107Z,12.8
2018-04-22T02:42:57.084Z,12.85
2018-04-22T02:43:56.879Z,12.83
2018-04-22T02:44:57.060Z,12.83
2018-04-22T02:45:57.018Z,12.9
2018-04-22T02:46:57.001Z,12.82
2018-04-22T02:47:56.977Z,12.87
2018-04-22T02:48:56.962Z,12.94
2018-04-22T02:49:56.932Z,12.94
2018-04-22T02:50:56.906Z,12.94
2018-04-22T02:51:56.913Z,12.94
2018-04-22T02:52:56.870Z,12.94
2018-04-22T02:53:56.838Z,12.9
2018-04-22T02:54:56.817Z,13
2018-04-22T02:55:56.797Z,12.97
2018-04-22T02:56:56.776Z,12.95
2018-04-22T02:57:56.749Z,12.9
2018-04-22T02:58:56.724Z,12.94
2018-04-22T02:59:56.709Z,12.87
2018-04-22T03:00:56.701Z,12.87
2018-04-22T03:01:56.662Z,12.97
2018-04-22T03:02:56.635Z,12.93
2018-04-22T03:03:56.613Z,12.94
2018-04-22T03:04:56.599Z,12.94
2018-04-22T03:05:56.579Z,12.91
2018-04-22T03:06:56.543Z,12.91
2018-04-22T03:07:56.526Z,12.9
2018-04-22T03:08:56.007Z,12.98
2018-04-22T03:09:56.476Z,12.93
2018-04-22T03:10:56.208Z,12.87
2018-04-22T03:11:56.433Z,12.94
2018-04-22T03:12:56.408Z,12.94
2018-04-22T03:13:56.390Z,12.94
2018-04-22T03:14:56.362Z,12.91
2018-04-22T03:15:56.345Z,12.98
2018-04-22T03:16:55.822Z,13.04
2018-04-22T03:17:56.301Z,13
2018-04-22T03:18:56.282Z,12.97
2018-04-22T03:19:56.005Z,13.03
2018-04-22T03:20:55.739Z,13
2018-04-22T03:21:56.210Z,12.94
2018-04-22T03:22:56.190Z,12.97
2018-04-22T03:23:56.168Z,13.01
2018-04-22T03:24:55.900Z,13.09
2018-04-22T03:25:55.878Z,13.04
2018-04-22T03:26:56.099Z,13.03
2018-04-22T03:27:56.072Z,13.05
2018-04-22T03:28:56.062Z,12.97
2018-04-22T03:29:56.033Z,13.05
2018-04-22T03:30:56.009Z,12.95
2018-04-22T03:31:55.738Z,12.94
2018-04-22T03:32:55.964Z,12.94
2018-04-22T03:33:55.949Z,12.93
2018-04-22T03:34:55.920Z,13
2018-04-22T03:35:55.898Z,12.97
2018-04-22T03:36:55.878Z,12.97
2018-04-22T03:37:55.600Z,12.91
2018-04-22T03:38:55.832Z,12.9
2018-04-22T03:39:55.559Z,12.91
2018-04-22T03:40:55.797Z,12.86
2018-04-22T03:41:55.511Z,12.83
2018-04-22T03:42:55.741Z,12.85
2018-04-22T03:43:55.472Z,12.82
2018-04-22T03:44:55.696Z,12.87
2018-04-22T03:45:55.673Z,12.85
2018-04-22T03:46:55.402Z,12.83
2018-04-22T03:47:55.631Z,12.79
2018-04-22T03:48:55.605Z,12.86
2018-04-22T03:49:55.582Z,12.78
2018-04-22T03:50:55.560Z,12.76
2018-04-22T03:51:55.540Z,12.78
2018-04-22T03:52:55.519Z,12.82
2018-04-22T03:53:55.247Z,12.82
2018-04-22T03:54:55.225Z,12.83
2018-04-22T03:55:55.449Z,12.8
2018-04-22T03:56:55.443Z,12.85
2018-04-22T03:57:55.153Z,12.82
2018-04-22T03:58:55.384Z,12.85
2018-04-22T03:59:55.354Z,12.8
2018-04-22T04:00:55.337Z,12.86
2018-04-22T04:01:55.312Z,12.82
2018-04-22T04:02:55.294Z,12.79
2018-04-22T04:03:55.266Z,12.86
2018-04-22T04:04:54.997Z,12.78
2018-04-22T04:05:54.977Z,12.83
2018-04-22T04:06:54.956Z,12.8
2018-04-22T04:07:55.175Z,12.86
2018-04-22T04:08:55.153Z,12.82
2018-04-22T04:09:54.898Z,12.78
2018-04-22T04:10:54.866Z,12.86
2018-04-22T04:11:55.089Z,12.79
2018-04-22T04:12:55.066Z,12.85
2018-04-22T04:13:55.040Z,12.82
2018-04-22T04:14:54.771Z,12.76
2018-04-22T04:15:54.766Z,12.79
2018-04-22T04:16:54.727Z,12.8
2018-04-22T04:17:54.948Z,12.8
2018-04-22T04:18:54.680Z,12.73
2018-04-22T04:19:54.911Z,12.73
2018-04-22T04:20:54.885Z,12.7
2018-04-22T04:21:54.856Z,12.73
2018-04-22T04:22:54.843Z,12.64
2018-04-22T04:23:54.818Z,12.65
2018-04-22T04:24:54.804Z,12.65
2018-04-22T04:25:54.775Z,12.62
2018-04-22T04:26:54.503Z,12.72
2018-04-22T04:27:54.727Z,12.62
2018-04-22T04:28:54.849Z,12.58
2018-04-22T04:29:54.688Z,12.65
2018-04-22T04:30:54.671Z,12.61
2018-04-22T04:31:54.645Z,12.58
2018-04-22T04:32:54.613Z,12.65
2018-04-22T04:33:54.595Z,12.6
2018-04-22T04:34:54.324Z,12.7
2018-04-22T04:35:54.542Z,12.61
2018-04-22T04:36:54.286Z,12.64
2018-04-22T04:37:54.544Z,12.65
2018-04-22T04:38:54.476Z,12.67
2018-04-22T04:39:54.450Z,12.67
2018-04-22T04:40:54.432Z,12.7
2018-04-22T04:41:54.417Z,12.55
2018-04-22T04:42:54.388Z,12.6
2018-04-22T04:43:54.362Z,12.65
2018-04-22T04:44:54.091Z,12.67
2018-04-22T04:45:54.069Z,12.67
2018-04-22T04:46:54.296Z,12.68
2018-04-22T04:47:54.022Z,12.55
2018-04-22T04:48:54.249Z,12.58
2018-04-22T04:49:54.222Z,12.61
2018-04-22T04:50:53.955Z,12.6
2018-04-22T04:51:53.930Z,12.6
2018-04-22T04:52:54.157Z,12.65
2018-04-22T04:53:54.135Z,12.7
2018-04-22T04:54:54.111Z,12.76
2018-04-22T04:55:54.092Z,12.8
2018-04-22T04:56:53.820Z,12.82
2018-04-22T04:57:54.045Z,12.9
2018-04-22T04:58:54.023Z,12.86
2018-04-22T04:59:53.752Z,12.87
2018-04-22T05:00:53.982Z,12.91
2018-04-22T05:01:53.954Z,12.97
2018-04-22T05:02:53.938Z,12.94
2018-04-22T05:03:53.916Z,13.05
2018-04-22T05:04:53.894Z,13.04
2018-04-22T05:05:53.866Z,13.04
2018-04-22T05:06:53.848Z,13.11
2018-04-22T05:07:53.820Z,13.15
2018-04-22T05:08:53.799Z,13.16
2018-04-22T05:09:53.776Z,13.19
2018-04-22T05:10:53.505Z,13.19
2018-04-22T05:11:53.734Z,13.13
2018-04-22T05:12:53.461Z,13.18
2018-04-22T05:13:53.450Z,13.16
2018-04-22T05:14:53.674Z,13.2
2018-04-22T05:15:53.644Z,13.22
2018-04-22T05:16:53.625Z,13.25
2018-04-22T05:17:53.602Z,13.28
2018-04-22T05:18:53.581Z,13.3
2018-04-22T05:19:53.561Z,13.37
2018-04-22T05:20:53.287Z,13.42
2018-04-22T05:21:53.519Z,13.44
2018-04-22T05:22:53.241Z,13.42
2018-04-22T05:23:53.468Z,13.47
2018-04-22T05:24:53.209Z,13.47
2018-04-22T05:25:53.176Z,13.5
2018-04-22T05:26:52.906Z,13.49
2018-04-22T05:27:53.387Z,13.5
2018-04-22T05:28:53.363Z,13.47
2018-04-22T05:29:53.344Z,13.53
2018-04-22T05:30:53.482Z,13.52
2018-04-22T05:31:53.299Z,13.49
2018-04-22T05:32:53.277Z,13.49
2018-04-22T05:33:53.261Z,13.59
2018-04-22T05:34:53.231Z,13.63
2018-04-22T05:35:53.217Z,13.65
2018-04-22T05:36:53.191Z,13.6
2018-04-22T05:37:53.175Z,13.6
2018-04-22T05:38:53.143Z,13.75
2018-04-22T05:39:53.118Z,13.7
2018-04-22T05:40:53.102Z,13.78
2018-04-22T05:41:53.206Z,13.75
2018-04-22T05:42:53.060Z,13.72
2018-04-22T05:43:53.045Z,13.72
2018-04-22T05:44:53.019Z,13.79
2018-04-22T05:45:52.746Z,13.79
2018-04-22T05:46:52.974Z,13.86
2018-04-22T05:47:52.951Z,13.89
2018-04-22T05:48:52.714Z,13.87
2018-04-22T05:49:52.916Z,13.95
2018-04-22T05:50:52.886Z,13.97
2018-04-22T05:51:52.872Z,14.04
2018-04-22T05:52:52.598Z,14.05
2018-04-22T05:53:52.828Z,14.08
2018-04-22T05:54:52.804Z,14.11
2018-04-22T05:55:52.779Z,14.14
2018-04-22T05:56:52.768Z,14.12
2018-04-22T05:57:52.490Z,14.15
2018-04-22T05:58:52.720Z,14.2
2018-04-22T05:59:52.452Z,14.28
2018-04-22T06:00:52.431Z,14.17
2018-04-22T06:01:52.657Z,14.23
2018-04-22T06:02:52.635Z,14.26
2018-04-22T06:03:52.617Z,14.37
2018-04-22T06:04:52.602Z,14.36
2018-04-22T06:05:52.578Z,14.33
2018-04-22T06:06:52.554Z,14.35
2018-04-22T06:07:52.533Z,14.4
2018-04-22T06:08:52.514Z,14.45
2018-04-22T06:09:52.497Z,14.45
2018-04-22T06:10:52.471Z,14.54
2018-04-22T06:11:52.448Z,14.54
2018-04-22T06:12:52.178Z,14.47
2018-04-22T06:13:52.417Z,14.58
2018-04-22T06:14:52.238Z,14.62
2018-04-22T06:15:52.119Z,14.63
2018-04-22T06:16:52.102Z,14.78
2018-04-22T06:17:52.077Z,14.77
2018-04-22T06:18:52.303Z,14.94
2018-04-22T06:19:52.036Z,14.86
2018-04-22T06:20:52.275Z,14.94
2018-04-22T06:21:52.247Z,15
2018-04-22T06:22:52.358Z,15.11
2018-04-22T06:23:52.209Z,15.14
2018-04-22T06:24:52.189Z,15.18
2018-04-22T06:25:52.169Z,15.25
2018-04-22T06:26:52.161Z,15.4
2018-04-22T06:27:52.127Z,15.36
2018-04-22T06:28:52.116Z,15.46
2018-04-22T06:29:51.845Z,15.47
2018-04-22T06:30:52.072Z,15.51
2018-04-22T06:31:52.055Z,15.64
2018-04-22T06:32:52.040Z,15.73
2018-04-22T06:33:52.021Z,15.79
2018-04-22T06:34:52.002Z,15.82
2018-04-22T06:35:51.732Z,15.76
2018-04-22T06:36:51.966Z,15.82
2018-04-22T06:37:52.452Z,15.9
2018-04-22T06:38:51.686Z,15.92
2018-04-22T06:39:51.912Z,15.92
2018-04-22T06:40:51.896Z,15.98
2018-04-22T06:41:51.873Z,16.1
2018-04-22T06:42:51.855Z,16.09
2018-04-22T06:43:51.850Z,16.13
2018-04-22T06:44:51.819Z,16.29
2018-04-22T06:45:51.806Z,16.28
2018-04-22T06:46:51.792Z,16.31
2018-04-22T06:47:51.769Z,16.29
2018-04-22T06:48:51.754Z,16.36
2018-04-22T06:49:51.736Z,16.36
2018-04-22T06:50:51.720Z,16.33
2018-04-22T06:51:51.452Z,16.35
2018-04-22T06:52:51.436Z,16.33
2018-04-22T06:53:51.669Z,16.29
2018-04-22T06:54:51.650Z,16.36
2018-04-22T06:55:51.633Z,16.36
2018-04-22T06:56:51.628Z,16.47
2018-04-22T06:57:51.847Z,16.46
2018-04-22T06:58:51.716Z,16.54
2018-04-22T06:59:51.570Z,16.54
2018-04-22T07:00:51.550Z,16.68
2018-04-22T07:01:51.746Z,16.83
2018-04-22T07:02:51.521Z,16.89
2018-04-22T07:03:51.503Z,16.94
2018-04-22T07:04:51.242Z,16.96
2018-04-22T07:05:51.475Z,17.06
2018-04-22T07:06:51.460Z,17.22
2018-04-22T07:07:51.444Z,17.3
2018-04-22T07:08:51.434Z,17.26
2018-04-22T07:09:51.429Z,17.36
2018-04-22T07:10:51.399Z,17.33
2018-04-22T07:11:51.389Z,17.41
2018-04-22T07:12:51.362Z,17.46
2018-04-22T07:13:51.351Z,17.57
2018-04-22T07:14:51.334Z,17.6
2018-04-22T07:15:51.076Z,17.67
2018-04-22T07:16:51.306Z,17.68
2018-04-22T07:17:51.292Z,17.87
2018-04-22T07:18:51.276Z,17.97
2018-04-22T07:19:51.261Z,18.05
2018-04-22T07:20:51.250Z,18.18
2018-04-22T07:21:50.993Z,18.26
2018-04-22T07:22:50.722Z,18.33
2018-04-22T07:23:51.211Z,18.49
2018-04-22T07:24:51.196Z,18.6
2018-04-22T07:25:51.182Z,18.68
2018-04-22T07:26:51.164Z,18.7
2018-04-22T07:27:51.145Z,18.71
2018-04-22T07:28:51.142Z,18.81
2018-04-22T07:29:50.873Z,18.86
2018-04-22T07:30:51.107Z,19.04
2018-04-22T07:31:51.089Z,19.12
2018-04-22T07:32:50.833Z,19.21
2018-04-22T07:33:50.821Z,19.33
2018-04-22T07:34:51.053Z,19.33
2018-04-22T07:35:51.041Z,19.41
2018-04-22T07:36:51.030Z,19.44
2018-04-22T07:37:51.016Z,19.48
2018-04-22T07:38:51.000Z,19.66
2018-04-22T07:39:50.989Z,19.69
2018-04-22T07:40:51.097Z,19.73
2018-04-22T07:41:50.970Z,19.73
2018-04-22T07:42:50.958Z,19.88
2018-04-22T07:43:50.691Z,19.95
2018-04-22T07:44:50.842Z,20.06
2018-04-22T07:45:50.665Z,20.06
2018-04-22T07:46:50.908Z,20.19
2018-04-22T07:47:50.891Z,20.29
2018-04-22T07:48:50.880Z,20.41
2018-04-22T07:49:50.871Z,20.59
2018-04-22T07:50:50.855Z,20.52
2018-04-22T07:51:50.596Z,20.66
2018-04-22T07:52:50.582Z,20.74
2018-04-22T07:53:50.871Z,20.72
2018-04-22T07:54:50.811Z,20.9
2018-04-22T07:55:50.792Z,20.95
2018-04-22T07:56:50.785Z,20.96
2018-04-22T07:57:50.776Z,20.96
2018-04-22T07:58:50.516Z,21.03
2018-04-22T07:59:50.754Z,21.03
2018-04-22T08:00:51.152Z,21.14
2018-04-22T08:01:50.824Z,21.11
2018-04-22T08:02:50.717Z,21.35
2018-04-22T08:03:50.453Z,21.48
2018-04-22T08:04:50.701Z,21.64
2018-04-22T08:05:50.433Z,21.69
2018-04-22T08:06:50.958Z,21.82
2018-04-22T08:07:50.660Z,21.88
2018-04-22T08:08:50.650Z,21.95
2018-04-22T08:09:50.642Z,21.99
2018-04-22T08:10:50.635Z,21.95
2018-04-22T08:11:50.374Z,21.99
2018-04-22T08:12:50.612Z,22.07
2018-04-22T08:13:50.609Z,22.07
2018-04-22T08:14:50.590Z,21.98
2018-04-22T08:15:50.332Z,21.92
2018-04-22T08:16:50.325Z,21.93
2018-04-22T08:17:50.568Z,21.96
2018-04-22T08:18:50.561Z,21.92
2018-04-22T08:19:50.546Z,21.83
2018-04-22T08:20:50.288Z,21.88
2018-04-22T08:21:50.536Z,21.89
2018-04-22T08:22:50.518Z,21.98
2018-04-22T08:23:50.505Z,21.91
2018-04-22T08:24:50.508Z,22
2018-04-22T08:25:50.535Z,22.04
2018-04-22T08:26:50.230Z,22.06
2018-04-22T08:27:50.468Z,22.07
2018-04-22T08:28:50.210Z,22.25
2018-04-22T08:29:50.456Z,22.3
2018-04-22T08:30:50.440Z,22.39
2018-04-22T08:31:50.470Z,22.45
2018-04-22T08:32:50.426Z,22.66
2018-04-22T08:33:50.412Z,22.9
2018-04-22T08:34:50.402Z,23.2
2018-04-22T08:35:50.143Z,23.46
2018-04-22T08:36:50.382Z,23.56
2018-04-22T08:37:50.380Z,23.86
2018-04-22T08:38:50.123Z,24.06
2018-04-22T08:39:50.357Z,24.23
2018-04-22T08:40:50.357Z,24.39
2018-04-22T08:41:50.340Z,24.51
2018-04-22T08:42:50.335Z,24.47
2018-04-22T08:43:50.335Z,24.51
2018-04-22T08:44:50.331Z,24.51
2018-04-22T08:45:50.311Z,24.47
2018-04-22T08:46:50.058Z,24.43
2018-04-22T08:47:49.798Z,24.38
2018-04-22T08:48:50.052Z,24.47
2018-04-22T08:49:49.818Z,24.39
2018-04-22T08:50:50.032Z,24.29
2018-04-22T08:51:50.268Z,24.39
2018-04-22T08:52:50.260Z,24.36
2018-04-22T08:53:50.010Z,24.47
2018-04-22T08:54:50.004Z,24.43
2018-04-22T08:55:50.018Z,24.47
2018-04-22T08:56:50.245Z,24.35
2018-04-22T08:57:49.986Z,24.35
2018-04-22T08:58:49.975Z,24.28
2018-04-22T08:59:50.225Z,24.2
2018-04-22T09:00:50.213Z,24.2
2018-04-22T09:01:49.959Z,24.18
2018-04-22T09:02:50.446Z,24.11
2018-04-22T09:03:50.189Z,24.14
2018-04-22T09:04:50.197Z,24.08
2018-04-22T09:05:50.178Z,24.21
2018-04-22T09:06:49.932Z,24.11
2018-04-22T09:07:49.669Z,24.1
2018-04-22T09:08:50.160Z,24.14
2018-04-22T09:09:50.149Z,24.24
2018-04-22T09:10:50.282Z,24.17
2018-04-22T09:11:50.140Z,24.17
2018-04-22T09:12:50.133Z,24.28
2018-04-22T09:13:49.874Z,24.21
2018-04-22T09:14:50.408Z,24.3
2018-04-22T09:15:50.109Z,24.36
2018-04-22T09:16:49.853Z,24.33
2018-04-22T09:17:50.189Z,24.33
2018-04-22T09:18:50.082Z,24.43
2018-04-22T09:19:50.065Z,24.5
2018-04-22T09:20:50.063Z,24.51
2018-04-22T09:21:50.051Z,24.57
2018-04-22T09:22:50.041Z,24.57
2018-04-22T09:23:50.031Z,24.61
2018-04-22T09:24:50.033Z,24.63
2018-04-22T09:25:49.761Z,24.66
2018-04-22T09:26:50.005Z,24.7
2018-04-22T09:27:49.744Z,24.73
2018-04-22T09:28:49.983Z,24.76
2018-04-22T09:29:49.992Z,24.77
2018-04-22T09:30:49.962Z,24.76
2018-04-22T09:31:49.951Z,24.73
2018-04-22T09:32:49.692Z,24.78
2018-04-22T09:33:49.933Z,24.81
2018-04-22T09:34:49.978Z,24.81
2018-04-22T09:35:49.913Z,24.88
2018-04-22T09:36:49.653Z,24.91
2018-04-22T09:37:49.898Z,24.98
2018-04-22T09:38:49.629Z,24.95
2018-04-22T09:39:49.624Z,24.92
2018-04-22T09:40:49.854Z,24.84
2018-04-22T09:41:50.386Z,24.86
2018-04-22T09:42:49.584Z,24.93
2018-04-22T09:43:49.579Z,25.06
2018-04-22T09:44:49.814Z,25.06
2018-04-22T09:45:49.800Z,25.04
2018-04-22T09:46:49.786Z,25.1
2018-04-22T09:47:49.782Z,25.1
2018-04-22T09:48:49.768Z,25.13
2018-04-22T09:49:49.834Z,25.17
2018-04-22T09:50:49.758Z,25.1
2018-04-22T09:51:49.486Z,25.23
2018-04-22T09:52:49.730Z,25.22
2018-04-22T09:53:49.705Z,25.25
2018-04-22T09:54:49.449Z,25.23
2018-04-22T09:55:49.516Z,25.28
2018-04-22T09:56:49.427Z,25.4
2018-04-22T09:57:49.414Z,25.36
2018-04-22T09:58:49.406Z,25.31
2018-04-22T09:59:49.389Z,25.41
2018-04-22T10:00:49.626Z,25.47
2018-04-22T10:01:49.621Z,25.51
2018-04-22T10:02:49.610Z,25.53
2018-04-22T10:03:49.595Z,25.48
2018-04-22T10:04:49.629Z,25.66
2018-04-22T10:05:49.571Z,25.7
2018-04-22T10:06:49.310Z,25.73
2018-04-22T10:07:49.559Z,25.8
2018-04-22T10:08:49.531Z,25.81
2018-04-22T10:09:49.524Z,25.77
2018-04-22T10:10:49.518Z,25.66
2018-04-22T10:11:49.259Z,25.66
2018-04-22T10:12:49.243Z,25.59
2018-04-22T10:13:49.234Z,25.51
2018-04-22T10:14:49.471Z,25.5
2018-04-22T10:15:49.450Z,25.46
2018-04-22T10:16:49.441Z,25.5
2018-04-22T10:17:49.437Z,25.55
2018-04-22T10:18:49.428Z,25.72
2018-04-22T10:19:49.409Z,25.66
2018-04-22T10:20:49.403Z,25.69
2018-04-22T10:21:49.393Z,25.85
2018-04-22T10:22:49.127Z,25.73
2018-04-22T10:23:49.367Z,25.81
2018-04-22T10:24:49.108Z,25.78
2018-04-22T10:25:49.094Z,25.8
2018-04-22T10:26:49.088Z,25.85
2018-04-22T10:27:49.183Z,25.88
2018-04-22T10:28:49.310Z,25.85
2018-04-22T10:29:49.299Z,25.96
2018-04-22T10:30:49.286Z,25.98
2018-04-22T10:31:49.274Z,25.95
2018-04-22T10:32:49.267Z,26.02
2018-04-22T10:33:49.256Z,25.99
2018-04-22T10:34:49.423Z,26.07
2018-04-22T10:35:49.234Z,26.1
2018-04-22T10:36:49.225Z,26.33
2018-04-22T10:37:49.213Z,26.31
2018-04-22T10:38:49.208Z,26.43
2018-04-22T10:39:49.191Z,26.4
2018-04-22T10:40:48.978Z,26.48
2018-04-22T10:41:49.173Z,26.62
2018-04-22T10:42:48.952Z,26.62
2018-04-22T10:43:49.181Z,26.73
2018-04-22T10:44:49.133Z,26.73
2018-04-22T10:45:48.880Z,26.74
2018-04-22T10:46:49.220Z,26.81
2018-04-22T10:47:49.107Z,26.85
2018-04-22T10:48:49.096Z,26.95
2018-04-22T10:49:49.090Z,27.03
2018-04-22T10:50:49.076Z,27.1
2018-04-22T10:51:48.818Z,27.03
2018-04-22T10:52:49.063Z,27.03
2018-04-22T10:53:48.799Z,26.96
2018-04-22T10:54:48.792Z,27.1
2018-04-22T10:55:49.025Z,27.14
2018-04-22T10:56:49.021Z,27.18
2018-04-22T10:57:48.761Z,27.35
2018-04-22T10:58:49.003Z,27.4
2018-04-22T10:59:49.069Z,27.44
2018-04-22T11:00:48.983Z,27.44
2018-04-22T11:01:48.986Z,27.37
2018-04-22T11:02:48.965Z,27.44
2018-04-22T11:03:48.951Z,27.35
2018-04-22T11:04:48.700Z,27.36
2018-04-22T11:05:48.696Z,27.36
2018-04-22T11:06:48.937Z,27.3
2018-04-22T11:07:48.927Z,27.44
2018-04-22T11:08:48.672Z,27.44
2018-04-22T11:09:48.908Z,27.44
2018-04-22T11:10:48.892Z,27.47
2018-04-22T11:11:48.997Z,27.4
2018-04-22T11:12:48.977Z,27.44
2018-04-22T11:13:48.877Z,27.37
2018-04-22T11:14:48.895Z,27.42
2018-04-22T11:15:48.861Z,27.48
2018-04-22T11:16:48.845Z,27.39
2018-04-22T11:17:48.597Z,27.44
2018-04-22T11:18:48.830Z,27.49
2018-04-22T11:19:48.574Z,27.51
2018-04-22T11:20:48.817Z,27.58
2018-04-22T11:21:48.822Z,27.55
2018-04-22T11:22:48.805Z,27.64
2018-04-22T11:23:48.793Z,27.7
2018-04-22T11:24:48.534Z,27.71
2018-04-22T11:25:48.779Z,27.83
2018-04-22T11:26:48.775Z,27.92
2018-04-22T11:27:48.514Z,28.02
2018-04-22T11:28:48.355Z,28.1
2018-04-22T11:29:48.749Z,28.08
2018-04-22T11:30:48.488Z,28.12
2018-04-22T11:31:48.730Z,28.2
2018-04-22T11:32:48.472Z,28.17
2018-04-22T11:33:48.711Z,28.11
2018-04-22T11:34:48.705Z,28.15
2018-04-22T11:35:48.699Z,28.12
2018-04-22T11:36:48.693Z,28.22
2018-04-22T11:37:48.682Z,28.29
2018-04-22T11:38:48.678Z,28.22
2018-04-22T11:39:48.667Z,28.23
2018-04-22T11:40:48.410Z,28.33
2018-04-22T11:41:48.657Z,28.39
2018-04-22T11:42:48.642Z,28.41
2018-04-22T11:43:48.641Z,28.48
2018-04-22T11:44:48.377Z,28.45
2018-04-22T11:45:48.388Z,28.41
2018-04-22T11:46:48.619Z,28.47
2018-04-22T11:47:48.701Z,28.48
2018-04-22T11:48:48.349Z,28.47
2018-04-22T11:49:48.590Z,28.48
2018-04-22T11:50:48.589Z,28.6
2018-04-22T11:51:48.327Z,28.62
2018-04-22T11:52:48.572Z,28.54
2018-04-22T11:53:48.564Z,28.66
2018-04-22T11:54:48.305Z,28.69
2018-04-22T11:55:48.547Z,28.6
2018-04-22T11:56:48.537Z,28.64
2018-04-22T11:57:48.285Z,28.59
2018-04-22T11:58:48.276Z,28.62
2018-04-22T11:59:48.528Z,28.6
2018-04-22T12:00:48.521Z,28.66
2018-04-22T12:01:48.258Z,28.67
2018-04-22T12:02:48.498Z,28.72
2018-04-22T12:03:48.485Z,28.78
2018-04-22T12:04:48.496Z,28.85
2018-04-22T12:05:48.477Z,28.94
2018-04-22T12:06:48.273Z,28.96
2018-04-22T12:07:48.208Z,28.91
2018-04-22T12:08:48.196Z,28.85
2018-04-22T12:09:48.442Z,28.89
2018-04-22T12:10:48.439Z,28.78
2018-04-22T12:11:48.426Z,28.72
2018-04-22T12:12:48.426Z,28.69
2018-04-22T12:13:48.413Z,28.63
2018-04-22T12:14:48.475Z,28.63
2018-04-22T12:15:48.401Z,28.67
2018-04-22T12:16:48.389Z,28.76
2018-04-22T12:17:48.386Z,28.86
2018-04-22T12:18:48.400Z,28.91
2018-04-22T12:19:47.874Z,29.08
2018-04-22T12:20:48.479Z,28.98
2018-04-22T12:21:48.361Z,29.01
2018-04-22T12:22:48.103Z,28.97
2018-04-22T12:23:48.099Z,28.97
2018-04-22T12:24:48.446Z,29.05
2018-04-22T12:25:48.085Z,29.02
2018-04-22T12:26:48.373Z,29.13
2018-04-22T12:27:48.321Z,29.17
2018-04-22T12:28:48.069Z,29.12
2018-04-22T12:29:48.309Z,29.12
2018-04-22T12:30:48.302Z,29.02
2018-04-22T12:31:48.338Z,29.07
2018-04-22T12:32:48.295Z,29.07
2018-04-22T12:33:48.286Z,29.08
2018-04-22T12:34:48.285Z,29.04
2018-04-22T12:35:48.273Z,28.98
2018-04-22T12:36:48.267Z,28.86
2018-04-22T12:37:48.281Z,28.89
2018-04-22T12:38:48.253Z,28.88
2018-04-22T12:39:48.245Z,28.89
2018-04-22T12:40:48.242Z,28.97
2018-04-22T12:41:48.231Z,28.98
2018-04-22T12:42:48.233Z,28.98
2018-04-22T12:43:48.216Z,28.93
2018-04-22T12:44:48.209Z,28.79
2018-04-22T12:45:48.207Z,28.75
2018-04-22T12:46:47.944Z,28.7
2018-04-22T12:47:47.988Z,28.67
2018-04-22T12:48:48.177Z,28.81
2018-04-22T12:49:48.173Z,28.96
2018-04-22T12:50:48.173Z,28.91
2018-04-22T12:51:48.159Z,29.01
2018-04-22T12:52:48.154Z,28.93
2018-04-22T12:53:48.155Z,28.76
2018-04-22T12:54:48.134Z,28.6
2018-04-22T12:55:48.131Z,28.66